sensor_id;sensor_type;location;lat;lon;timestamp;P1;durP1;ratioP1;P2;durP2;ratioP2
22565;SDS011;11449;51.330;19.378;2022-07-05T00:04:00;72.32;;;18.02;;
22565;SDS011;11449;51.330;19.378;2022-07-05T00:09:02;46.20;;;14.58;;
22565;SDS011;11449;51.330;19.378;2022-07-05T00:14:03;53.20;;;16.75;;
22565;SDS011;11449;51.330;19.378;2022-07-05T00:19:05;63.55;;;17.45;;
22565;SDS011;11449;51.330;19.378;2022-07-05T00:24:06;57.78;;;17.77;;
22565;SDS011;11449;51.330;19.378;2022-07-05T00:29:08;68.62;;;19.15;;
22565;SDS011;11449;51.330;19.378;2022-07-05T00:34:09;53.42;;;17.45;;
22565;SDS011;11449;51.330;19.378;2022-07-05T00:39:10;45.60;;;16.35;;
22565;SDS011;11449;51.330;19.378;2022-07-05T00:44:12;63.63;;;18.37;;
22565;SDS011;11449;51.330;19.378;2022-07-05T00:49:15;72.53;;;21.02;;
22565;SDS011;11449;51.330;19.378;2022-07-05T00:54:16;70.30;;;25.62;;
22565;SDS011;11449;51.330;19.378;2022-07-05T00:59:17;79.62;;;27.25;;
22565;SDS011;11449;51.330;19.378;2022-07-05T01:04:18;57.40;;;18.52;;
22565;SDS011;11449;51.330;19.378;2022-07-05T01:09:20;56.75;;;18.35;;
22565;SDS011;11449;51.330;19.378;2022-07-05T01:14:23;43.90;;;16.80;;
22565;SDS011;11449;51.330;19.378;2022-07-05T01:19:25;43.60;;;15.60;;
22565;SDS011;11449;51.330;19.378;2022-07-05T01:24:28;45.83;;;15.05;;
22565;SDS011;11449;51.330;19.378;2022-07-05T01:29:29;52.55;;;16.40;;
22565;SDS011;11449;51.330;19.378;2022-07-05T01:34:30;45.83;;;16.23;;
22565;SDS011;11449;51.330;19.378;2022-07-05T01:39:32;49.48;;;17.20;;
22565;SDS011;11449;51.330;19.378;2022-07-05T01:44:33;55.73;;;16.57;;
22565;SDS011;11449;51.330;19.378;2022-07-05T01:49:36;41.63;;;16.40;;
22565;SDS011;11449;51.330;19.378;2022-07-05T01:54:39;57.90;;;17.10;;
22565;SDS011;11449;51.330;19.378;2022-07-05T01:59:41;69.47;;;18.35;;
22565;SDS011;11449;51.330;19.378;2022-07-05T02:04:42;56.33;;;17.62;;
22565;SDS011;11449;51.330;19.378;2022-07-05T02:09:45;41.88;;;16.60;;
22565;SDS011;11449;51.330;19.378;2022-07-05T02:14:47;19.65;;;14.43;;
22565;SDS011;11449;51.330;19.378;2022-07-05T02:19:50;20.20;;;15.85;;
22565;SDS011;11449;51.330;19.378;2022-07-05T02:24:52;19.77;;;15.00;;
22565;SDS011;11449;51.330;19.378;2022-07-05T02:29:55;16.42;;;13.62;;
22565;SDS011;11449;51.330;19.378;2022-07-05T02:34:58;16.23;;;14.28;;
22565;SDS011;11449;51.330;19.378;2022-07-05T02:39:59;17.77;;;14.05;;
22565;SDS011;11449;51.330;19.378;2022-07-05T02:45:03;21.60;;;14.78;;
22565;SDS011;11449;51.330;19.378;2022-07-05T02:50:06;21.15;;;14.73;;
22565;SDS011;11449;51.330;19.378;2022-07-05T02:55:11;16.15;;;13.35;;
22565;SDS011;11449;51.330;19.378;2022-07-05T03:00:13;18.45;;;13.32;;
22565;SDS011;11449;51.330;19.378;2022-07-05T03:05:16;17.17;;;13.53;;
22565;SDS011;11449;51.330;19.378;2022-07-05T03:10:19;19.00;;;13.88;;
22565;SDS011;11449;51.330;19.378;2022-07-05T03:15:21;19.55;;;13.55;;
22565;SDS011;11449;51.330;19.378;2022-07-05T03:20:23;17.42;;;14.05;;
22565;SDS011;11449;51.330;19.378;2022-07-05T03:25:25;16.10;;;13.48;;
22565;SDS011;11449;51.330;19.378;2022-07-05T03:30:27;19.05;;;13.90;;
22565;SDS011;11449;51.330;19.378;2022-07-05T03:35:29;16.10;;;14.25;;
22565;SDS011;11449;51.330;19.378;2022-07-05T03:40:31;18.30;;;14.63;;
22565;SDS011;11449;51.330;19.378;2022-07-05T03:45:33;16.87;;;13.93;;
22565;SDS011;11449;51.330;19.378;2022-07-05T03:50:35;14.00;;;12.47;;
22565;SDS011;11449;51.330;19.378;2022-07-05T03:55:37;17.82;;;13.10;;
22565;SDS011;11449;51.330;19.378;2022-07-05T04:00:39;20.08;;;13.78;;
22565;SDS011;11449;51.330;19.378;2022-07-05T04:05:41;16.25;;;12.93;;
22565;SDS011;11449;51.330;19.378;2022-07-05T04:10:42;13.50;;;12.13;;
22565;SDS011;11449;51.330;19.378;2022-07-05T04:15:45;17.80;;;12.98;;
22565;SDS011;11449;51.330;19.378;2022-07-05T04:20:47;19.40;;;13.43;;
22565;SDS011;11449;51.330;19.378;2022-07-05T04:25:49;16.10;;;12.78;;
22565;SDS011;11449;51.330;19.378;2022-07-05T04:30:52;15.43;;;13.22;;
22565;SDS011;11449;51.330;19.378;2022-07-05T04:35:54;17.20;;;12.58;;
22565;SDS011;11449;51.330;19.378;2022-07-05T04:40:56;17.55;;;13.13;;
22565;SDS011;11449;51.330;19.378;2022-07-05T04:45:58;19.90;;;12.20;;
22565;SDS011;11449;51.330;19.378;2022-07-05T04:51:00;13.90;;;12.05;;
22565;SDS011;11449;51.330;19.378;2022-07-05T04:56:02;16.75;;;12.07;;
22565;SDS011;11449;51.330;19.378;2022-07-05T05:01:04;15.03;;;12.93;;
22565;SDS011;11449;51.330;19.378;2022-07-05T05:06:05;14.63;;;12.18;;
22565;SDS011;11449;51.330;19.378;2022-07-05T05:11:06;14.60;;;11.88;;
22565;SDS011;11449;51.330;19.378;2022-07-05T05:16:08;16.50;;;12.53;;
22565;SDS011;11449;51.330;19.378;2022-07-05T05:21:10;13.65;;;11.53;;
22565;SDS011;11449;51.330;19.378;2022-07-05T05:26:12;14.70;;;11.93;;
22565;SDS011;11449;51.330;19.378;2022-07-05T05:31:13;16.25;;;12.15;;
22565;SDS011;11449;51.330;19.378;2022-07-05T05:36:14;16.52;;;12.93;;
22565;SDS011;11449;51.330;19.378;2022-07-05T05:41:16;18.35;;;11.48;;
22565;SDS011;11449;51.330;19.378;2022-07-05T05:46:17;14.23;;;11.28;;
22565;SDS011;11449;51.330;19.378;2022-07-05T05:51:18;15.60;;;11.53;;
22565;SDS011;11449;51.330;19.378;2022-07-05T05:56:19;13.55;;;11.30;;
22565;SDS011;11449;51.330;19.378;2022-07-05T06:01:20;16.27;;;11.88;;
22565;SDS011;11449;51.330;19.378;2022-07-05T06:06:22;16.15;;;12.58;;
22565;SDS011;11449;51.330;19.378;2022-07-05T06:11:23;12.85;;;11.45;;
22565;SDS011;11449;51.330;19.378;2022-07-05T06:16:24;16.60;;;11.35;;
22565;SDS011;11449;51.330;19.378;2022-07-05T06:21:26;14.00;;;11.75;;
22565;SDS011;11449;51.330;19.378;2022-07-05T06:26:27;14.93;;;12.00;;
22565;SDS011;11449;51.330;19.378;2022-07-05T06:31:28;15.53;;;12.50;;
22565;SDS011;11449;51.330;19.378;2022-07-05T06:36:30;15.10;;;12.05;;
22565;SDS011;11449;51.330;19.378;2022-07-05T06:41:31;13.58;;;11.90;;
22565;SDS011;11449;51.330;19.378;2022-07-05T06:46:32;13.43;;;12.03;;
22565;SDS011;11449;51.330;19.378;2022-07-05T06:51:33;14.60;;;10.95;;
22565;SDS011;11449;51.330;19.378;2022-07-05T06:56:34;15.00;;;12.25;;
22565;SDS011;11449;51.330;19.378;2022-07-05T07:01:35;13.90;;;11.97;;
22565;SDS011;11449;51.330;19.378;2022-07-05T07:06:37;11.53;;;10.40;;
22565;SDS011;11449;51.330;19.378;2022-07-05T07:11:38;16.32;;;11.65;;
22565;SDS011;11449;51.330;19.378;2022-07-05T07:16:39;13.38;;;11.97;;
22565;SDS011;11449;51.330;19.378;2022-07-05T07:21:41;13.32;;;11.18;;
22565;SDS011;11449;51.330;19.378;2022-07-05T07:26:43;16.45;;;11.85;;
22565;SDS011;11449;51.330;19.378;2022-07-05T07:32:03;13.95;;;11.48;;
22565;SDS011;11449;51.330;19.378;2022-07-05T07:37:05;15.40;;;10.72;;
22565;SDS011;11449;51.330;19.378;2022-07-05T07:42:09;13.25;;;10.88;;
22565;SDS011;11449;51.330;19.378;2022-07-05T07:47:10;13.98;;;11.45;;
22565;SDS011;11449;51.330;19.378;2022-07-05T07:52:12;13.45;;;10.58;;
22565;SDS011;11449;51.330;19.378;2022-07-05T07:57:13;14.13;;;11.55;;
22565;SDS011;11449;51.330;19.378;2022-07-05T08:02:16;18.17;;;11.08;;
22565;SDS011;11449;51.330;19.378;2022-07-05T08:07:19;13.53;;;11.63;;
22565;SDS011;11449;51.330;19.378;2022-07-05T08:12:20;16.40;;;12.10;;
22565;SDS011;11449;51.330;19.378;2022-07-05T08:17:22;14.45;;;11.85;;
22565;SDS011;11449;51.330;19.378;2022-07-05T08:22:23;21.57;;;13.90;;
22565;SDS011;11449;51.330;19.378;2022-07-05T08:27:24;16.65;;;11.73;;
22565;SDS011;11449;51.330;19.378;2022-07-05T08:32:26;17.50;;;11.43;;
22565;SDS011;11449;51.330;19.378;2022-07-05T08:37:27;13.62;;;11.08;;
22565;SDS011;11449;51.330;19.378;2022-07-05T08:42:28;15.75;;;12.93;;
22565;SDS011;11449;51.330;19.378;2022-07-05T08:47:29;13.85;;;10.93;;
22565;SDS011;11449;51.330;19.378;2022-07-05T08:52:33;13.32;;;11.88;;
22565;SDS011;11449;51.330;19.378;2022-07-05T08:57:35;14.20;;;12.00;;
22565;SDS011;11449;51.330;19.378;2022-07-05T09:02:36;38.02;;;13.90;;
22565;SDS011;11449;51.330;19.378;2022-07-05T09:07:38;41.85;;;13.83;;
22565;SDS011;11449;51.330;19.378;2022-07-05T09:12:43;47.75;;;13.38;;
22565;SDS011;11449;51.330;19.378;2022-07-05T09:17:44;44.25;;;13.05;;
22565;SDS011;11449;51.330;19.378;2022-07-05T09:22:47;60.05;;;15.25;;
22565;SDS011;11449;51.330;19.378;2022-07-05T09:27:59;45.78;;;13.48;;
22565;SDS011;11449;51.330;19.378;2022-07-05T09:38:04;38.23;;;11.97;;
22565;SDS011;11449;51.330;19.378;2022-07-05T09:43:15;40.95;;;11.50;;
22565;SDS011;11449;51.330;19.378;2022-07-05T09:48:14;42.17;;;10.60;;
22565;SDS011;11449;51.330;19.378;2022-07-05T09:53:15;54.73;;;11.55;;
22565;SDS011;11449;51.330;19.378;2022-07-05T09:58:24;43.58;;;9.55;;
22565;SDS011;11449;51.330;19.378;2022-07-05T10:03:21;35.03;;;7.87;;
22565;SDS011;11449;51.330;19.378;2022-07-05T10:08:22;47.73;;;9.73;;
22565;SDS011;11449;51.330;19.378;2022-07-05T10:13:23;29.75;;;6.95;;
22565;SDS011;11449;51.330;19.378;2022-07-05T10:18:24;36.70;;;8.33;;
22565;SDS011;11449;51.330;19.378;2022-07-05T10:23:28;33.55;;;7.30;;
22565;SDS011;11449;51.330;19.378;2022-07-05T10:28:31;6.75;;;4.80;;
22565;SDS011;11449;51.330;19.378;2022-07-05T10:33:33;27.05;;;6.53;;
22565;SDS011;11449;51.330;19.378;2022-07-05T10:38:40;15.32;;;5.90;;
22565;SDS011;11449;51.330;19.378;2022-07-05T10:43:39;9.25;;;6.65;;
22565;SDS011;11449;51.330;19.378;2022-07-05T10:48:40;8.28;;;6.40;;
22565;SDS011;11449;51.330;19.378;2022-07-05T10:58:49;11.00;;;6.45;;
22565;SDS011;11449;51.330;19.378;2022-07-05T11:19:26;8.85;;;5.22;;
22565;SDS011;11449;51.330;19.378;2022-07-05T11:24:28;7.37;;;5.22;;
22565;SDS011;11449;51.330;19.378;2022-07-05T11:34:46;6.20;;;5.62;;
22565;SDS011;11449;51.330;19.378;2022-07-05T11:45:13;9.88;;;6.08;;
22565;SDS011;11449;51.330;19.378;2022-07-05T11:50:15;7.42;;;5.78;;
22565;SDS011;11449;51.330;19.378;2022-07-05T11:55:17;7.12;;;6.28;;
22565;SDS011;11449;51.330;19.378;2022-07-05T12:00:36;9.58;;;7.62;;
22565;SDS011;11449;51.330;19.378;2022-07-05T12:05:36;13.32;;;8.33;;
22565;SDS011;11449;51.330;19.378;2022-07-05T12:10:37;7.42;;;6.10;;
22565;SDS011;11449;51.330;19.378;2022-07-05T12:15:59;9.00;;;5.90;;
22565;SDS011;11449;51.330;19.378;2022-07-05T12:21:01;6.87;;;6.17;;
22565;SDS011;11449;51.330;19.378;2022-07-05T12:26:03;8.05;;;6.03;;
22565;SDS011;11449;51.330;19.378;2022-07-05T12:31:17;7.00;;;5.20;;
22565;SDS011;11449;51.330;19.378;2022-07-05T12:36:21;6.95;;;5.08;;
22565;SDS011;11449;51.330;19.378;2022-07-05T12:41:27;8.50;;;6.28;;
22565;SDS011;11449;51.330;19.378;2022-07-05T12:46:40;9.90;;;5.55;;
22565;SDS011;11449;51.330;19.378;2022-07-05T12:51:39;9.63;;;7.75;;
22565;SDS011;11449;51.330;19.378;2022-07-05T12:56:46;19.12;;;15.68;;
22565;SDS011;11449;51.330;19.378;2022-07-05T13:02:08;14.90;;;13.35;;
22565;SDS011;11449;51.330;19.378;2022-07-05T13:07:10;9.55;;;7.67;;
22565;SDS011;11449;51.330;19.378;2022-07-05T13:12:19;8.38;;;7.12;;
22565;SDS011;11449;51.330;19.378;2022-07-05T13:17:25;14.65;;;9.08;;
22565;SDS011;11449;51.330;19.378;2022-07-05T13:22:26;11.10;;;9.10;;
22565;SDS011;11449;51.330;19.378;2022-07-05T13:27:27;11.10;;;7.20;;
22565;SDS011;11449;51.330;19.378;2022-07-05T13:32:29;11.33;;;7.15;;
22565;SDS011;11449;51.330;19.378;2022-07-05T13:37:30;8.83;;;7.92;;
22565;SDS011;11449;51.330;19.378;2022-07-05T13:42:31;10.93;;;9.43;;
22565;SDS011;11449;51.330;19.378;2022-07-05T13:47:32;9.10;;;8.20;;
22565;SDS011;11449;51.330;19.378;2022-07-05T13:52:34;9.30;;;8.35;;
22565;SDS011;11449;51.330;19.378;2022-07-05T13:57:35;12.82;;;9.55;;
22565;SDS011;11449;51.330;19.378;2022-07-05T14:02:36;10.60;;;8.10;;
22565;SDS011;11449;51.330;19.378;2022-07-05T14:07:37;12.00;;;8.75;;
22565;SDS011;11449;51.330;19.378;2022-07-05T14:12:38;11.20;;;8.58;;
22565;SDS011;11449;51.330;19.378;2022-07-05T14:17:39;9.28;;;8.33;;
22565;SDS011;11449;51.330;19.378;2022-07-05T14:22:41;9.43;;;8.20;;
22565;SDS011;11449;51.330;19.378;2022-07-05T14:27:42;10.38;;;8.33;;
22565;SDS011;11449;51.330;19.378;2022-07-05T14:32:46;8.98;;;8.10;;
22565;SDS011;11449;51.330;19.378;2022-07-05T14:37:47;8.50;;;7.20;;
22565;SDS011;11449;51.330;19.378;2022-07-05T14:42:49;10.55;;;7.37;;
22565;SDS011;11449;51.330;19.378;2022-07-05T14:47:51;9.20;;;7.40;;
22565;SDS011;11449;51.330;19.378;2022-07-05T14:52:53;8.88;;;6.72;;
22565;SDS011;11449;51.330;19.378;2022-07-05T14:57:54;9.18;;;6.70;;
22565;SDS011;11449;51.330;19.378;2022-07-05T15:02:55;11.12;;;6.17;;
22565;SDS011;11449;51.330;19.378;2022-07-05T15:07:57;8.43;;;6.65;;
22565;SDS011;11449;51.330;19.378;2022-07-05T15:12:58;9.00;;;6.70;;
22565;SDS011;11449;51.330;19.378;2022-07-05T15:17:59;9.68;;;7.35;;
22565;SDS011;11449;51.330;19.378;2022-07-05T15:23:01;10.60;;;6.75;;
22565;SDS011;11449;51.330;19.378;2022-07-05T15:28:02;28.25;;;9.08;;
22565;SDS011;11449;51.330;19.378;2022-07-05T15:33:06;37.05;;;9.65;;
22565;SDS011;11449;51.330;19.378;2022-07-05T15:38:08;54.30;;;11.25;;
22565;SDS011;11449;51.330;19.378;2022-07-05T15:43:09;69.97;;;13.13;;
22565;SDS011;11449;51.330;19.378;2022-07-05T15:48:10;52.25;;;11.30;;
22565;SDS011;11449;51.330;19.378;2022-07-05T15:53:12;28.75;;;9.20;;
22565;SDS011;11449;51.330;19.378;2022-07-05T15:58:13;20.85;;;8.08;;
22565;SDS011;11449;51.330;19.378;2022-07-05T16:03:15;26.95;;;9.05;;
22565;SDS011;11449;51.330;19.378;2022-07-05T16:08:16;25.50;;;8.63;;
22565;SDS011;11449;51.330;19.378;2022-07-05T16:13:18;22.27;;;7.47;;
22565;SDS011;11449;51.330;19.378;2022-07-05T16:18:19;23.57;;;7.97;;
22565;SDS011;11449;51.330;19.378;2022-07-05T16:23:21;24.23;;;8.20;;
22565;SDS011;11449;51.330;19.378;2022-07-05T16:28:22;10.55;;;5.83;;
22565;SDS011;11449;51.330;19.378;2022-07-05T16:33:24;22.00;;;8.58;;
22565;SDS011;11449;51.330;19.378;2022-07-05T16:38:26;7.62;;;5.10;;
22565;SDS011;11449;51.330;19.378;2022-07-05T16:43:29;6.60;;;4.87;;
22565;SDS011;11449;51.330;19.378;2022-07-05T16:48:30;8.43;;;5.22;;
22565;SDS011;11449;51.330;19.378;2022-07-05T16:53:35;9.85;;;7.12;;
22565;SDS011;11449;51.330;19.378;2022-07-05T16:58:37;16.48;;;14.58;;
22565;SDS011;11449;51.330;19.378;2022-07-05T17:03:46;20.37;;;16.82;;
22565;SDS011;11449;51.330;19.378;2022-07-05T17:08:46;8.13;;;6.62;;
22565;SDS011;11449;51.330;19.378;2022-07-05T17:13:50;9.18;;;6.08;;
22565;SDS011;11449;51.330;19.378;2022-07-05T17:18:53;7.35;;;5.03;;
22565;SDS011;11449;51.330;19.378;2022-07-05T17:23:56;11.25;;;6.47;;
22565;SDS011;11449;51.330;19.378;2022-07-05T17:28:58;10.58;;;6.58;;
22565;SDS011;11449;51.330;19.378;2022-07-05T17:33:59;28.30;;;9.68;;
22565;SDS011;11449;51.330;19.378;2022-07-05T17:39:01;24.47;;;8.45;;
22565;SDS011;11449;51.330;19.378;2022-07-05T17:44:02;31.00;;;9.25;;
22565;SDS011;11449;51.330;19.378;2022-07-05T17:49:06;28.77;;;9.30;;
22565;SDS011;11449;51.330;19.378;2022-07-05T17:54:07;32.88;;;11.80;;
22565;SDS011;11449;51.330;19.378;2022-07-05T17:59:08;34.70;;;13.88;;
22565;SDS011;11449;51.330;19.378;2022-07-05T18:04:09;28.62;;;11.93;;
22565;SDS011;11449;51.330;19.378;2022-07-05T18:09:11;36.45;;;12.55;;
22565;SDS011;11449;51.330;19.378;2022-07-05T18:14:12;38.08;;;13.18;;
22565;SDS011;11449;51.330;19.378;2022-07-05T18:19:13;44.33;;;17.82;;
22565;SDS011;11449;51.330;19.378;2022-07-05T18:24:14;34.58;;;17.37;;
22565;SDS011;11449;51.330;19.378;2022-07-05T18:29:15;59.48;;;40.25;;
22565;SDS011;11449;51.330;19.378;2022-07-05T18:34:17;58.45;;;34.85;;
22565;SDS011;11449;51.330;19.378;2022-07-05T18:39:18;50.45;;;19.55;;
22565;SDS011;11449;51.330;19.378;2022-07-05T18:44:22;26.17;;;9.68;;
22565;SDS011;11449;51.330;19.378;2022-07-05T18:49:23;36.53;;;13.55;;
22565;SDS011;11449;51.330;19.378;2022-07-05T18:54:24;36.58;;;18.82;;
22565;SDS011;11449;51.330;19.378;2022-07-05T18:59:26;39.92;;;12.47;;
22565;SDS011;11449;51.330;19.378;2022-07-05T19:04:28;36.42;;;15.30;;
22565;SDS011;11449;51.330;19.378;2022-07-05T19:09:30;26.68;;;11.85;;
22565;SDS011;11449;51.330;19.378;2022-07-05T19:14:49;32.78;;;13.55;;
22565;SDS011;11449;51.330;19.378;2022-07-05T19:19:52;31.17;;;11.33;;
22565;SDS011;11449;51.330;19.378;2022-07-05T19:24:53;40.65;;;11.48;;
22565;SDS011;11449;51.330;19.378;2022-07-05T19:29:56;37.17;;;15.40;;
22565;SDS011;11449;51.330;19.378;2022-07-05T19:34:57;36.40;;;14.43;;
22565;SDS011;11449;51.330;19.378;2022-07-05T19:39:59;38.40;;;16.77;;
22565;SDS011;11449;51.330;19.378;2022-07-05T19:45:01;42.38;;;20.25;;
22565;SDS011;11449;51.330;19.378;2022-07-05T19:50:03;52.03;;;34.73;;
22565;SDS011;11449;51.330;19.378;2022-07-05T19:55:05;42.27;;;24.20;;
22565;SDS011;11449;51.330;19.378;2022-07-05T20:00:07;48.78;;;26.55;;
22565;SDS011;11449;51.330;19.378;2022-07-05T20:05:09;41.37;;;28.25;;
22565;SDS011;11449;51.330;19.378;2022-07-05T20:10:10;26.62;;;14.93;;
22565;SDS011;11449;51.330;19.378;2022-07-05T20:15:12;25.32;;;11.18;;
22565;SDS011;11449;51.330;19.378;2022-07-05T20:20:13;27.30;;;12.68;;
22565;SDS011;11449;51.330;19.378;2022-07-05T20:25:15;24.52;;;11.20;;
22565;SDS011;11449;51.330;19.378;2022-07-05T20:30:16;20.80;;;11.38;;
22565;SDS011;11449;51.330;19.378;2022-07-05T20:35:17;75.30;;;20.08;;
22565;SDS011;11449;51.330;19.378;2022-07-05T20:40:19;34.13;;;16.95;;
22565;SDS011;11449;51.330;19.378;2022-07-05T20:45:20;25.82;;;15.90;;
22565;SDS011;11449;51.330;19.378;2022-07-05T20:50:22;30.57;;;13.62;;
22565;SDS011;11449;51.330;19.378;2022-07-05T20:55:23;43.20;;;18.67;;
22565;SDS011;11449;51.330;19.378;2022-07-05T21:00:25;37.67;;;15.78;;
22565;SDS011;11449;51.330;19.378;2022-07-05T21:05:26;40.30;;;13.10;;
22565;SDS011;11449;51.330;19.378;2022-07-05T21:10:27;44.73;;;13.28;;
22565;SDS011;11449;51.330;19.378;2022-07-05T21:15:28;29.70;;;12.90;;
22565;SDS011;11449;51.330;19.378;2022-07-05T21:20:30;33.80;;;12.63;;
22565;SDS011;11449;51.330;19.378;2022-07-05T21:25:31;31.37;;;13.38;;
22565;SDS011;11449;51.330;19.378;2022-07-05T21:30:32;30.10;;;12.70;;
22565;SDS011;11449;51.330;19.378;2022-07-05T21:35:33;28.00;;;11.08;;
22565;SDS011;11449;51.330;19.378;2022-07-05T21:40:35;34.60;;;11.22;;
22565;SDS011;11449;51.330;19.378;2022-07-05T21:45:36;26.82;;;9.58;;
22565;SDS011;11449;51.330;19.378;2022-07-05T21:50:37;27.10;;;10.13;;
22565;SDS011;11449;51.330;19.378;2022-07-05T21:55:38;26.73;;;9.25;;
22565;SDS011;11449;51.330;19.378;2022-07-05T22:00:39;42.08;;;10.60;;
22565;SDS011;11449;51.330;19.378;2022-07-05T22:05:59;29.65;;;9.18;;
22565;SDS011;11449;51.330;19.378;2022-07-05T22:11:00;30.75;;;9.58;;
22565;SDS011;11449;51.330;19.378;2022-07-05T22:16:37;24.35;;;9.15;;
22565;SDS011;11449;51.330;19.378;2022-07-05T22:21:38;29.05;;;9.53;;
22565;SDS011;11449;51.330;19.378;2022-07-05T22:26:40;30.70;;;9.30;;
22565;SDS011;11449;51.330;19.378;2022-07-05T22:31:41;22.65;;;8.55;;
22565;SDS011;11449;51.330;19.378;2022-07-05T22:36:42;34.75;;;9.45;;
22565;SDS011;11449;51.330;19.378;2022-07-05T22:41:44;33.63;;;10.10;;
22565;SDS011;11449;51.330;19.378;2022-07-05T22:46:45;31.48;;;9.60;;
22565;SDS011;11449;51.330;19.378;2022-07-05T22:51:46;29.92;;;9.53;;
22565;SDS011;11449;51.330;19.378;2022-07-05T22:56:47;37.48;;;10.50;;
22565;SDS011;11449;51.330;19.378;2022-07-05T23:01:48;30.48;;;9.80;;
22565;SDS011;11449;51.330;19.378;2022-07-05T23:06:50;32.88;;;9.93;;
22565;SDS011;11449;51.330;19.378;2022-07-05T23:11:51;27.40;;;8.98;;
22565;SDS011;11449;51.330;19.378;2022-07-05T23:16:52;30.35;;;10.35;;
22565;SDS011;11449;51.330;19.378;2022-07-05T23:21:54;38.05;;;10.82;;
22565;SDS011;11449;51.330;19.378;2022-07-05T23:26:55;58.13;;;12.68;;
22565;SDS011;11449;51.330;19.378;2022-07-05T23:31:56;39.95;;;11.48;;
22565;SDS011;11449;51.330;19.378;2022-07-05T23:36:58;38.17;;;10.40;;
22565;SDS011;11449;51.330;19.378;2022-07-05T23:41:59;42.83;;;11.45;;
22565;SDS011;11449;51.330;19.378;2022-07-05T23:47:01;44.88;;;12.28;;
22565;SDS011;11449;51.330;19.378;2022-07-05T23:52:03;40.10;;;11.40;;
22565;SDS011;11449;51.330;19.378;2022-07-05T23:57:05;35.13;;;11.75;;
